METAR Reports

 

EHEH - Eindhoven Airport, Eindhoven, NL
Distance from station: W 30km
Updated: 21/10/2017 06:25
Few Clouds
Few Clouds
 Wind van Z
Wind: Z 13 km/h
Temperatuur: 11°C
Dauwpunt: 8°C
Vochtigheid: 82%
Barometer: 1010 hPa
Clouds: Few Clouds
Visibility: 10 km
Cloud details: Few Clouds 1646 m
2017/10/21 04:25 EHEH 210425Z AUTO 17007KT 130V200 9999 FEW054 11/08 Q1010 BLU 16008KT 9999 SCT035 BKN070
EHVK - Volkel Airoprt, Volkel, NL
Distance from station: NO 30km
Updated: 21/10/2017 06:25
Few Clouds
Few Clouds
 Wind van ZZO
Wind: ZZO 15 km/h
Temperatuur: 11°C
Dauwpunt: 8°C
Vochtigheid: 82%
Barometer: 1009 hPa
Clouds: Few Clouds
Visibility: 10 km
Cloud details: Few Clouds 4572 m
2017/10/21 04:25 EHVK 210425Z AUTO 16008KT 130V200 9999 FEW150 11/08 Q1009 BLU
 
EHGR - Gilze-Rijen Airport, Gilze-Rijen, NL
Distance from station: W 43km
Updated: 21/10/2017 06:25
Zwaar bewolkt
Zwaar bewolkt
 Wind van Z
Wind: Z 19 km/h
Temperatuur: 11°C
Dauwpunt: 8°C
Vochtigheid: 82%
Barometer: 1009 hPa
Clouds: Zwaar bewolkt
Visibility: 10 km
Cloud details: Meestal bewolkt 1554 m
Zwaar bewolkt 2195 m
2017/10/21 04:25 EHGR 210425Z AUTO 17010KT 110V200 9999 BKN051 OVC072 11/08 Q1009 BLU
EHBK - Maastricht-Aken Airport, Beek, NL
Distance from station: ZZO 70km
Updated: 21/10/2017 06:25
Helder
Helder
 Wind van Z
Wind: Z 24 km/h
Temperatuur: 12°C
Dauwpunt: 8°C
Vochtigheid: 77%
Barometer: 1010 hPa
Clouds: Helder
Visibility: 10 km
2017/10/21 04:25 EHBK 210425Z AUTO 19013KT 9999 NCD 12/08 Q1010 NOSIG
 
EHAM - Schiphol, Amsterdam, NL
Distance from station: NNW 115km
Updated: 21/10/2017 06:25
Helder
Helder
 Wind van ZZO
Wind: ZZO 26 km/h
Temperatuur: 11°C
Dauwpunt: 9°C
Vochtigheid: 88%
Barometer: 1007 hPa
Overzicht: Helder
Visibility: greater than 10 km
2017/10/21 04:25 EHAM 210425Z 15014KT 120V180 CAVOK 11/09 Q1007 NOSIG